Airfield :







YOU CAN JOIN US ON...

 
LOGIN :

Register | Disclaimer

   EN    FR    IT 

 









Legend :    VFR   Marginal VFR   IFR   Intensive IFR   Very Intensive IFR
Visi :
Ceiling :
>= 8 km
>= 3000ft
5 to 8 km
1000 to 3000 ft
1500m to 5 km
500 to 1000 ft
800 to 1500m
200 to 500 ft
< 800m
< 200 ft
Symbols :   Thunderstorms  Fog  Heavy snow  Heavy precipitations  Wind > 20 kt






- Airport Elevation : 90 ft
- IATA code : YHU


CYHU - Montréal Saint-Hubert

CURRENT METAR :
  • 150500Z AUTO 00000KT 9SM FEW130 09/03 A2981 RMK SLP097

EXPIRED METARs :
  • 150400Z AUTO 03003KT 9SM BKN086 BKN110 11/04 A2983 RMK SLP102
  • 150300Z AUTO 02004KT 9SM BKN086 OVC120 11/04 A2984 RMK SLP107
  • 150200Z AUTO 02004KT 9SM OVC096 13/03 A2985 RMK SLP111

TAF TAF CYHU
Valid from the 15 at 00:00 until the 16 at 00:00 UTC


142348Z 1500/1524 VRB03KT P6SM BKN090 BKN150
TEMPO 1500/1510 SCT090 BKN150
FM151000 04006KT P6SM OVC060
TEMPO 1510/1512 6SM -SHRA BR BKN012 OVC040
FM151200 36008KT P6SM -RA SCT008 OVC015
FM151500 09008KT 5SM -RA BR OVC004 RMK FCST BASED ON AUTO OBS. NXT FCST BY 150600Z
CZUL FIR / North America



MET'MAP, your aeronautical weather chart ! - Copyright ORBIFLY December 2007 - Disclaimer

ORBIFLY MET'MAP TEAM :

Programming & Development : Alexandra Zaïnal
Concept & original design : Baudouin d'Aumeries
Assistance for programming : Marc-Olivier Méhu
Technical & hardware support : Manuel Goepfert

Contact : metmap@orbifly.com




SOURCES & CREDITS :

   NOAA